createdAt,value
2023-03-07T00:02:18.389Z,118.17
2023-03-07T00:04:55.188Z,125.77
2023-03-07T00:07:31.143Z,113.27
2023-03-07T00:10:13.678Z,132.20
2023-03-07T00:12:51.794Z,120.97
2023-03-07T00:15:28.321Z,124.60
2023-03-07T00:18:07.186Z,116.60
2023-03-07T00:20:43.897Z,127.80
2023-03-07T00:23:22.217Z,126.17
2023-03-07T00:26:06.795Z,127.53
2023-03-07T00:28:42.947Z,124.57
2023-03-07T00:31:21.712Z,129.63
2023-03-07T00:34:00.666Z,126.57
2023-03-07T00:36:37.309Z,130.87
2023-03-07T00:39:29.103Z,132.27
2023-03-07T00:42:07.972Z,129.90
2023-03-07T00:44:44.584Z,129.47
2023-03-07T00:47:20.539Z,133.87
2023-03-07T00:49:59.639Z,131.60
2023-03-07T00:52:36.062Z,118.93
2023-03-07T00:55:13.565Z,120.70
2023-03-07T00:57:54.144Z,119.27
2023-03-07T01:00:30.755Z,124.67
2023-03-07T01:03:09.266Z,124.40
2023-03-07T01:05:50.413Z,124.87
2023-03-07T01:08:28.331Z,119.80
2023-03-07T01:11:09.687Z,125.70
2023-03-07T01:13:48.215Z,125.83
2023-03-07T01:16:26.726Z,126.97
2023-03-07T01:19:05.547Z,125.73
2023-03-07T01:21:46.270Z,129.50
2023-03-07T01:24:23.450Z,125.47
2023-03-07T01:27:04.739Z,134.70
2023-03-07T01:29:40.946Z,139.87
2023-03-07T01:32:18.434Z,135.87
2023-03-07T01:34:56.422Z,130.70
2023-03-07T01:37:37.812Z,131.80
2023-03-07T01:40:18.278Z,133.87
2023-03-07T01:42:57.882Z,132.50
2023-03-07T01:46:19.180Z,127.23
2023-03-07T01:49:03.488Z,137.10
2023-03-07T01:51:49.785Z,132.67
2023-03-07T01:54:38.530Z,133.57
2023-03-07T01:57:19.451Z,139.03
2023-03-07T02:00:00.289Z,122.53
2023-03-07T02:02:44.379Z,136.03
2023-03-07T02:05:34.662Z,142.23
2023-03-07T02:08:13.693Z,141.23
2023-03-07T02:10:56.077Z,133.10
2023-03-07T02:13:46.589Z,135.30
2023-03-07T02:16:24.517Z,138.53
2023-03-07T02:19:05.676Z,138.67
2023-03-07T02:21:53.145Z,136.57
2023-03-07T02:24:38.051Z,137.67
2023-03-07T02:27:20.648Z,139.37
2023-03-07T02:29:59.307Z,131.40
2023-03-07T02:32:42.162Z,140.43
2023-03-07T02:35:31.124Z,138.63
2023-03-07T02:38:12.867Z,138.73
2023-03-07T02:40:54.351Z,134.13
2023-03-07T02:43:40.444Z,144.73
2023-03-07T02:46:21.465Z,144.63
2023-03-07T02:49:02.945Z,144.07
2023-03-07T02:51:43.856Z,145.37
2023-03-07T02:54:20.495Z,143.70
2023-03-07T02:56:59.266Z,135.57
2023-03-07T02:59:42.771Z,148.33
2023-03-07T03:02:22.463Z,138.50
2023-03-07T03:05:04.121Z,140.67
2023-03-07T03:07:49.129Z,136.53
2023-03-07T03:10:28.829Z,132.03
2023-03-07T03:13:07.855Z,133.83
2023-03-07T03:15:50.036Z,127.90
2023-03-07T03:18:27.455Z,133.57
2023-03-07T03:21:16.852Z,127.17
2023-03-07T03:24:12.150Z,125.43
2023-03-07T03:26:56.227Z,130.73
2023-03-07T03:29:38.115Z,131.20
2023-03-07T03:32:23.045Z,135.80
2023-03-07T03:35:00.412Z,132.70
2023-03-07T03:37:39.049Z,127.20
2023-03-07T03:40:19.987Z,131.30
2023-03-07T03:43:03.005Z,115.50
2023-03-07T03:45:39.932Z,122.13
2023-03-07T03:48:20.303Z,117.67
2023-03-07T03:51:07.184Z,126.77
2023-03-07T03:53:46.054Z,123.87
2023-03-07T03:56:25.117Z,124.53
2023-03-07T03:59:11.443Z,112.23
2023-03-07T04:01:52.354Z,119.20
2023-03-07T04:04:35.613Z,111.53
2023-03-07T04:07:22.045Z,126.20
2023-03-07T04:10:01.534Z,129.87
2023-03-07T04:12:42.653Z,122.70
2023-03-07T04:15:24.403Z,121.47
2023-03-07T04:18:16.524Z,126.27
2023-03-07T04:21:10.256Z,128.33
2023-03-07T04:23:58.385Z,123.00
2023-03-07T04:26:39.471Z,132.43
2023-03-07T04:29:22.345Z,136.27
2023-03-07T04:32:16.991Z,126.77
2023-03-07T04:34:55.182Z,132.23
2023-03-07T04:37:38.988Z,126.70
2023-03-07T04:40:23.977Z,130.60
2023-03-07T04:43:30.483Z,126.27
2023-03-07T04:46:18.528Z,131.97
2023-03-07T04:49:08.558Z,133.40
2023-03-07T04:51:46.017Z,135.90
2023-03-07T04:54:27.825Z,138.10
2023-03-07T04:57:09.096Z,134.97
2023-03-07T04:59:58.630Z,137.50
2023-03-07T05:02:41.012Z,133.27
2023-03-07T05:05:18.826Z,125.67
2023-03-07T05:08:03.562Z,136.60
2023-03-07T05:10:56.712Z,121.67
2023-03-07T05:13:43.164Z,132.27
2023-03-07T05:16:23.494Z,135.93
2023-03-07T05:19:06.371Z,131.77
2023-03-07T05:21:46.947Z,131.07
2023-03-07T05:24:27.166Z,131.50
2023-03-07T05:27:06.753Z,130.00
2023-03-07T05:29:47.622Z,132.20
2023-03-07T05:32:29.822Z,130.87
2023-03-07T05:35:07.224Z,134.47
2023-03-07T05:37:43.985Z,127.90
2023-03-07T05:40:21.304Z,131.07
2023-03-07T05:43:01.853Z,126.97
2023-03-07T05:45:53.031Z,129.97
2023-03-07T05:48:42.544Z,121.67
2023-03-07T05:51:21.274Z,125.63
2023-03-07T05:54:03.246Z,119.47
2023-03-07T05:56:42.587Z,126.13
2023-03-07T05:59:27.056Z,124.80
2023-03-07T06:02:04.131Z,131.93
2023-03-07T06:04:42.738Z,138.70
2023-03-07T06:07:24.503Z,124.17
2023-03-07T06:10:05.017Z,126.60
2023-03-07T06:12:51.524Z,130.20
2023-03-07T06:15:41.081Z,133.97
2023-03-07T06:18:21.439Z,136.93
2023-03-07T06:21:07.582Z,139.27
2023-03-07T06:23:51.400Z,138.77
2023-03-07T06:26:31.467Z,127.10
2023-03-07T06:29:17.162Z,131.50
2023-03-07T06:31:58.058Z,130.10
2023-03-07T06:34:39.820Z,139.10
2023-03-07T06:37:21.135Z,127.30
2023-03-07T06:40:00.947Z,127.10
2023-03-07T06:42:40.653Z,127.17
2023-03-07T06:45:23.992Z,135.00
2023-03-07T06:48:03.836Z,133.00
2023-03-07T06:50:41.360Z,132.63
2023-03-07T06:53:19.107Z,128.87
2023-03-07T06:55:57.335Z,131.97
2023-03-07T06:58:39.253Z,134.00
2023-03-07T07:01:28.611Z,128.13
2023-03-07T07:04:10.548Z,127.67
2023-03-07T07:06:52.084Z,130.90
2023-03-07T07:09:35.811Z,122.53
2023-03-07T07:12:22.403Z,129.57
2023-03-07T07:15:04.088Z,132.50
2023-03-07T07:17:45.418Z,128.03
2023-03-07T07:20:28.173Z,131.70
2023-03-07T07:23:07.400Z,126.53
2023-03-07T07:25:50.062Z,125.47
2023-03-07T07:28:29.249Z,117.87
2023-03-07T07:31:14.750Z,132.73
2023-03-07T07:33:54.024Z,115.50
2023-03-07T07:36:40.717Z,118.83
2023-03-07T07:39:19.857Z,131.47
2023-03-07T07:42:02.235Z,129.40
2023-03-07T07:44:50.146Z,128.53
2023-03-07T07:47:32.683Z,133.20
2023-03-07T07:50:18.964Z,130.07
2023-03-07T07:53:06.540Z,135.27
2023-03-07T07:55:46.972Z,125.47
2023-03-07T07:58:30.119Z,130.37
2023-03-07T08:01:29.616Z,132.93
2023-03-07T08:04:09.913Z,126.77
2023-03-07T08:06:53.160Z,128.53
2023-03-07T08:09:33.228Z,125.13
2023-03-07T08:12:17.892Z,133.00
2023-03-07T08:14:54.843Z,130.07
2023-03-07T08:17:36.801Z,137.17
2023-03-07T08:20:14.378Z,141.00
2023-03-07T08:22:57.268Z,124.53
2023-03-07T08:25:43.084Z,135.07
2023-03-07T08:28:20.328Z,124.63
2023-03-07T08:30:57.430Z,133.60
2023-03-07T08:33:34.094Z,125.20
2023-03-07T08:36:12.786Z,127.23
2023-03-07T08:39:32.879Z,124.67
2023-03-07T08:42:12.250Z,135.57
2023-03-07T08:44:56.454Z,122.57
2023-03-07T08:47:36.058Z,125.23
2023-03-07T08:50:14.105Z,120.63
2023-03-07T08:52:56.806Z,120.33
2023-03-07T08:55:37.009Z,121.73
2023-03-07T08:58:20.765Z,114.20
2023-03-07T09:01:08.554Z,118.33
2023-03-07T09:03:46.441Z,125.33
2023-03-07T09:06:32.221Z,121.23
2023-03-07T09:09:08.946Z,121.17
2023-03-07T09:11:49.137Z,125.40
2023-03-07T09:14:31.248Z,124.60
2023-03-07T09:17:09.466Z,120.93
2023-03-07T09:19:53.349Z,117.97
2023-03-07T09:22:30.559Z,121.53
2023-03-07T09:25:14.966Z,124.80
2023-03-07T09:27:55.265Z,120.47
2023-03-07T09:30:38.075Z,119.13
2023-03-07T09:33:16.069Z,108.13
2023-03-07T09:36:00.931Z,114.33
2023-03-07T09:38:45.141Z,106.40
2023-03-07T09:41:51.368Z,113.23
2023-03-07T09:44:45.687Z,111.83
2023-03-07T09:48:40.159Z,122.10
2023-03-07T09:51:24.265Z,106.23
2023-03-07T09:54:08.441Z,115.10
2023-03-07T09:56:51.666Z,109.17
2023-03-07T09:59:41.291Z,116.87
2023-03-07T10:02:33.999Z,114.53
2023-03-07T10:05:27.594Z,111.97
2023-03-07T10:08:06.946Z,114.03
2023-03-07T10:10:48.822Z,134.20
2023-03-07T10:13:46.765Z,116.53
2023-03-07T10:16:35.296Z,125.80
2023-03-07T10:19:27.883Z,129.27
2023-03-07T10:22:29.064Z,117.47
2023-03-07T10:25:30.484Z,122.37
2023-03-07T10:28:19.038Z,125.03
2023-03-07T10:31:04.079Z,127.13
2023-03-07T10:33:50.588Z,126.77
2023-03-07T10:36:40.540Z,132.77
2023-03-07T10:39:44.224Z,128.53
2023-03-07T10:42:51.038Z,130.43
2023-03-07T10:45:37.126Z,135.93
2023-03-07T10:48:27.558Z,138.30
2023-03-07T10:51:15.218Z,127.67
2023-03-07T10:54:02.007Z,136.50
2023-03-07T10:56:41.221Z,133.13
2023-03-07T10:59:19.999Z,130.90
2023-03-07T11:02:03.877Z,132.50
2023-03-07T11:04:52.911Z,133.13
2023-03-07T11:07:41.549Z,133.90
2023-03-07T11:10:39.663Z,136.80
2023-03-07T11:13:22.484Z,140.30
2023-03-07T11:16:16.644Z,133.57
2023-03-07T11:19:00.560Z,135.20
2023-03-07T11:21:39.745Z,143.27
2023-03-07T11:24:36.444Z,135.50
2023-03-07T11:27:25.356Z,139.40
2023-03-07T11:30:57.632Z,128.47
2023-03-07T11:33:59.528Z,140.70
2023-03-07T11:36:52.669Z,140.17
2023-03-07T12:00:32.126Z,144.43
2023-03-07T12:03:42.803Z,148.87
2023-03-07T12:06:31.342Z,145.67
2023-03-07T12:09:31.379Z,138.77
2023-03-07T12:12:48.593Z,154.13
2023-03-07T12:15:51.675Z,142.97
2023-03-07T12:18:56.843Z,142.20
2023-03-07T12:22:04.006Z,155.03
2023-03-07T12:25:02.590Z,154.00
2023-03-07T12:27:43.709Z,152.93
2023-03-07T12:30:28.948Z,150.80
2023-03-07T12:33:13.662Z,146.00
2023-03-07T12:36:02.103Z,147.07
2023-03-07T12:38:47.061Z,154.93
2023-03-07T12:41:45.485Z,152.93
2023-03-07T12:44:41.588Z,153.37
2023-03-07T12:47:35.571Z,150.63
2023-03-07T12:50:35.487Z,155.87
2023-03-07T12:53:25.644Z,153.33
2023-03-07T12:56:06.267Z,157.07
2023-03-07T12:58:52.121Z,153.20
2023-03-07T13:01:53.862Z,150.90
2023-03-07T13:04:41.470Z,156.90
2023-03-07T13:07:40.460Z,160.23
2023-03-07T13:10:26.469Z,154.73
2023-03-07T13:13:06.069Z,162.13
2023-03-07T13:16:13.113Z,153.80
2023-03-07T13:18:51.816Z,154.63
2023-03-07T13:21:41.616Z,155.17
2023-03-07T13:24:57.187Z,150.63
2023-03-07T13:27:51.359Z,158.57
2023-03-07T13:30:31.347Z,161.47
2023-03-07T13:33:12.521Z,156.47
2023-03-07T13:36:12.776Z,163.77
2023-03-07T13:38:49.929Z,168.93
2023-03-07T13:41:57.086Z,161.63
2023-03-07T13:44:51.532Z,165.37
2023-03-07T13:47:48.810Z,167.03
2023-03-07T13:50:49.110Z,164.00
2023-03-07T13:53:31.463Z,174.20
2023-03-07T13:56:17.789Z,165.37
2023-03-07T13:59:07.135Z,173.50
2023-03-07T14:01:50.725Z,166.97
2023-03-07T14:04:40.000Z,168.60
2023-03-07T14:07:27.296Z,164.80
2023-03-07T14:10:22.251Z,158.17
2023-03-07T14:13:42.961Z,164.50
2023-03-07T14:16:52.988Z,166.53
2023-03-07T14:19:46.948Z,168.07
2023-03-07T14:22:40.251Z,154.40
2023-03-07T14:25:27.710Z,153.73
2023-03-07T14:28:07.319Z,160.50
2023-03-07T14:30:53.729Z,159.60
2023-03-07T14:33:38.253Z,168.07
2023-03-07T14:36:37.042Z,151.70
2023-03-07T14:39:19.718Z,158.33
2023-03-07T14:42:07.788Z,150.30
2023-03-07T14:45:12.201Z,169.70
2023-03-07T14:48:12.920Z,163.10
2023-03-07T14:50:57.729Z,176.80
2023-03-07T14:53:40.058Z,176.20
2023-03-07T14:56:24.565Z,180.63
2023-03-07T14:59:05.363Z,188.13
2023-03-07T15:01:50.144Z,185.60
2023-03-07T15:04:38.968Z,201.33
2023-03-07T15:07:32.001Z,190.03
2023-03-07T15:10:08.938Z,190.13
2023-03-07T15:12:56.302Z,203.20
2023-03-07T15:15:45.593Z,193.53
2023-03-07T15:18:29.172Z,199.83
2023-03-07T15:21:13.386Z,203.33
2023-03-07T15:24:10.651Z,210.67
2023-03-07T15:26:58.803Z,209.60
2023-03-07T15:29:42.571Z,210.27
2023-03-07T15:32:44.125Z,215.93
2023-03-07T15:35:28.793Z,212.60
2023-03-07T15:38:13.768Z,211.30
2023-03-07T15:40:56.400Z,217.03
2023-03-07T15:43:42.928Z,234.13
2023-03-07T15:46:23.921Z,236.87
2023-03-07T15:49:04.273Z,244.53
2023-03-07T15:51:45.447Z,248.53
2023-03-07T15:54:36.636Z,248.90
2023-03-07T15:57:26.327Z,253.60
2023-03-07T16:00:07.641Z,245.27
2023-03-07T16:02:59.998Z,247.57
2023-03-07T16:05:46.339Z,249.20
2023-03-07T16:08:25.351Z,249.47
2023-03-07T16:11:10.631Z,248.07
2023-03-07T16:13:53.714Z,234.30
2023-03-07T16:16:50.697Z,256.57
2023-03-07T16:19:30.906Z,244.50
2023-03-07T16:22:08.797Z,250.03
2023-03-07T16:24:46.216Z,266.67
2023-03-07T16:27:33.552Z,261.30
2023-03-07T16:30:21.059Z,245.67
2023-03-07T16:33:04.647Z,242.23
2023-03-07T16:35:41.128Z,269.83
2023-03-07T16:38:28.134Z,261.97
2023-03-07T16:41:07.579Z,250.60
2023-03-07T16:43:46.307Z,241.33
2023-03-07T16:46:27.276Z,252.70
2023-03-07T16:49:06.759Z,249.83
2023-03-07T16:51:53.304Z,243.87
2023-03-07T16:54:36.202Z,259.17
2023-03-07T16:57:22.235Z,266.50
2023-03-07T16:59:59.002Z,250.90
2023-03-07T17:02:39.089Z,251.57
2023-03-07T17:05:23.774Z,248.07
2023-03-07T17:08:01.734Z,249.30
2023-03-07T17:10:39.312Z,250.67
2023-03-07T17:13:19.835Z,234.37
2023-03-07T17:16:02.599Z,253.03
2023-03-07T17:18:41.460Z,249.60
2023-03-07T17:21:21.439Z,256.13
2023-03-07T17:23:57.488Z,246.90
2023-03-07T17:26:36.750Z,248.67
2023-03-07T17:29:19.214Z,238.57
2023-03-07T17:31:55.677Z,245.07
2023-03-07T17:34:35.362Z,229.83
2023-03-07T17:37:12.227Z,249.40
2023-03-07T17:39:50.014Z,248.60
2023-03-07T17:42:28.149Z,250.87
2023-03-07T17:45:04.176Z,246.73
2023-03-07T17:47:42.868Z,248.23
2023-03-07T17:50:25.387Z,265.80
2023-03-07T17:53:02.553Z,248.73
2023-03-07T17:55:39.115Z,252.27
2023-03-07T17:58:19.049Z,252.23
2023-03-07T18:00:59.475Z,255.90
2023-03-07T18:03:36.865Z,257.70
2023-03-07T18:06:16.828Z,257.67
2023-03-07T18:08:52.839Z,248.47
2023-03-07T18:11:28.886Z,264.63
2023-03-07T18:14:05.072Z,263.30
2023-03-07T18:16:41.087Z,249.57
2023-03-07T18:19:25.642Z,252.53
2023-03-07T18:22:05.288Z,255.77
2023-03-07T18:24:42.334Z,256.63
2023-03-07T18:27:19.528Z,264.30
2023-03-07T18:29:57.580Z,259.30
2023-03-07T18:32:35.398Z,255.97
2023-03-07T18:35:17.124Z,246.13
2023-03-07T18:37:54.999Z,258.30
2023-03-07T18:40:33.302Z,262.50
2023-03-07T18:43:10.342Z,253.43
2023-03-07T18:45:49.710Z,247.73
2023-03-07T18:48:25.475Z,252.13
2023-03-07T18:51:05.107Z,250.40
2023-03-07T18:53:44.070Z,250.47
2023-03-07T18:56:21.247Z,247.77
2023-03-07T18:58:58.284Z,242.67
2023-03-07T19:01:34.610Z,237.17
2023-03-07T19:04:13.108Z,243.80
2023-03-07T19:06:49.908Z,246.23
2023-03-07T19:09:27.796Z,227.43
2023-03-07T19:12:03.795Z,254.07
2023-03-07T19:14:40.082Z,236.70
2023-03-07T19:17:15.677Z,244.93
2023-03-07T19:19:54.134Z,244.73
2023-03-07T19:22:29.679Z,239.27
2023-03-07T19:25:07.542Z,235.77
2023-03-07T19:27:43.145Z,243.63
2023-03-07T19:30:20.489Z,234.47
2023-03-07T19:32:55.952Z,233.10
2023-03-07T19:35:31.406Z,235.67
2023-03-07T19:38:06.488Z,232.03
2023-03-07T19:40:45.033Z,246.17
2023-03-07T19:43:20.361Z,242.00
2023-03-07T19:45:57.078Z,239.77
2023-03-07T19:48:32.363Z,247.40
2023-03-07T19:51:07.426Z,245.50
2023-03-07T19:53:42.222Z,238.20
2023-03-07T19:56:21.475Z,229.97
2023-03-07T19:58:56.941Z,237.37
2023-03-07T20:01:32.652Z,247.60
2023-03-07T20:04:09.327Z,244.57
2023-03-07T20:06:45.853Z,240.33
2023-03-07T20:09:20.919Z,244.23
2023-03-07T20:11:57.619Z,250.60
2023-03-07T20:14:33.694Z,239.63
2023-03-07T20:17:08.657Z,235.63
2023-03-07T20:19:44.425Z,236.17
2023-03-07T20:22:19.579Z,247.60
2023-03-07T20:24:56.213Z,242.77
2023-03-07T20:27:33.463Z,252.33
2023-03-07T20:30:08.644Z,241.83
2023-03-07T20:32:43.444Z,237.90
2023-03-07T20:35:18.754Z,250.70
2023-03-07T20:37:52.866Z,247.70
2023-03-07T20:40:28.067Z,245.17
2023-03-07T20:43:07.376Z,252.70
2023-03-07T20:45:42.488Z,262.83
2023-03-07T20:48:18.431Z,249.20
2023-03-07T20:50:53.619Z,256.90
2023-03-07T20:53:29.044Z,245.07
2023-03-07T20:56:08.708Z,266.50
2023-03-07T20:58:47.423Z,251.57
2023-03-07T21:01:24.026Z,254.50
2023-03-07T21:03:58.754Z,269.10
2023-03-07T21:06:33.308Z,260.50
2023-03-07T21:09:11.055Z,271.03
2023-03-07T21:11:47.698Z,256.30
2023-03-07T21:14:27.847Z,263.43
2023-03-07T21:17:05.371Z,247.77
2023-03-07T21:19:40.871Z,256.57
2023-03-07T21:22:15.946Z,258.63
2023-03-07T21:24:51.664Z,262.50
2023-03-07T21:27:26.635Z,263.83
2023-03-07T21:30:03.861Z,263.30
2023-03-07T21:32:39.981Z,267.37
2023-03-07T21:35:15.805Z,266.43
2023-03-07T21:37:51.112Z,268.17
2023-03-07T21:40:26.347Z,275.13
2023-03-07T21:43:01.588Z,285.27
2023-03-07T21:45:41.069Z,275.03
2023-03-07T21:48:18.536Z,277.47
2023-03-07T21:50:56.790Z,291.50
2023-03-07T21:53:32.667Z,281.83
2023-03-07T21:56:10.144Z,283.33
2023-03-07T21:58:46.746Z,270.17
2023-03-07T22:01:26.085Z,285.43
2023-03-07T22:04:02.870Z,276.93
2023-03-07T22:06:39.053Z,290.17
2023-03-07T22:09:14.999Z,292.37
2023-03-07T22:11:50.185Z,290.07
2023-03-07T22:14:25.124Z,279.77
2023-03-07T22:17:02.040Z,290.43
2023-03-07T22:19:37.754Z,294.87
2023-03-07T22:22:14.214Z,314.23
2023-03-07T22:24:49.871Z,296.07
2023-03-07T22:27:26.032Z,294.17
2023-03-07T22:30:01.873Z,296.37
2023-03-07T22:32:44.109Z,288.97
2023-03-07T22:35:19.406Z,309.20
2023-03-07T22:37:54.942Z,298.40
2023-03-07T22:40:30.284Z,289.80
2023-03-07T22:43:06.389Z,310.13
2023-03-07T22:45:45.444Z,295.40
2023-03-07T22:48:23.763Z,309.63
2023-03-07T22:50:59.228Z,294.77
2023-03-07T22:53:34.955Z,324.00
2023-03-07T22:56:17.854Z,311.40
2023-03-07T22:58:53.457Z,307.87
2023-03-07T23:01:31.173Z,311.77
2023-03-07T23:04:10.610Z,314.33
2023-03-07T23:06:46.814Z,300.17
2023-03-07T23:09:23.156Z,313.20
2023-03-07T23:11:58.914Z,306.53
2023-03-07T23:14:34.787Z,298.70
2023-03-07T23:17:10.074Z,303.07
2023-03-07T23:19:47.489Z,307.10
2023-03-07T23:22:23.116Z,299.07
2023-03-07T23:24:58.696Z,309.60
2023-03-07T23:27:34.751Z,307.53
2023-03-07T23:30:15.623Z,305.97
2023-03-07T23:32:55.692Z,325.40
2023-03-07T23:35:35.790Z,317.53
2023-03-07T23:38:12.011Z,329.60
2023-03-07T23:40:48.168Z,318.80
2023-03-07T23:43:24.432Z,323.60
2023-03-07T23:45:59.992Z,319.20
2023-03-07T23:48:35.477Z,306.07
2023-03-07T23:51:13.398Z,316.80
2023-03-07T23:53:49.234Z,307.43
2023-03-07T23:56:25.616Z,296.37
2023-03-07T23:59:01.402Z,297.63
